createdAt,value
2022-08-20T00:00:49.041Z,3.30
2022-08-20T00:03:29.446Z,3.05
2022-08-20T00:06:09.045Z,2.95
2022-08-20T00:08:47.938Z,2.40
2022-08-20T00:11:24.099Z,2.55
2022-08-20T00:13:56.421Z,2.97
2022-08-20T00:16:27.904Z,3.00
2022-08-20T00:18:57.268Z,3.35
2022-08-20T00:21:28.668Z,3.38
2022-08-20T00:23:59.395Z,2.60
2022-08-20T00:26:28.935Z,2.58
2022-08-20T00:28:56.535Z,3.90
2022-08-20T00:31:25.353Z,3.90
2022-08-20T00:33:53.989Z,4.28
2022-08-20T00:36:22.461Z,4.00
2022-08-20T00:39:00.682Z,4.18
2022-08-20T00:41:31.595Z,4.32
2022-08-20T00:44:13.739Z,4.18
2022-08-20T00:46:41.936Z,4.43
2022-08-20T00:49:19.842Z,3.45
2022-08-20T00:51:54.201Z,3.10
2022-08-20T00:54:26.664Z,3.38
2022-08-20T00:57:11.192Z,3.78
2022-08-20T00:59:50.079Z,3.53
2022-08-20T01:02:25.480Z,3.55
2022-08-20T01:04:58.268Z,4.30
2022-08-20T01:07:35.775Z,3.67
2022-08-20T01:10:13.142Z,3.15
2022-08-20T01:15:15.767Z,3.83
2022-08-20T01:17:50.792Z,3.67
2022-08-20T01:20:43.380Z,3.90
2022-08-20T01:23:32.405Z,3.92
2022-08-20T01:26:11.239Z,3.42
2022-08-20T01:28:51.046Z,3.85
2022-08-20T01:31:27.617Z,4.40
2022-08-20T01:33:57.075Z,3.78
2022-08-20T01:36:34.722Z,3.55
2022-08-20T01:39:03.880Z,3.50
2022-08-20T01:41:37.747Z,3.03
2022-08-20T01:44:05.806Z,3.80
2022-08-20T01:46:43.930Z,3.58
2022-08-20T01:49:21.046Z,3.60
2022-08-20T01:51:52.949Z,3.55
2022-08-20T01:54:22.089Z,3.35
2022-08-20T01:57:12.491Z,3.90
2022-08-20T01:59:41.542Z,3.40
2022-08-20T02:02:10.474Z,3.85
2022-08-20T02:04:38.226Z,2.55
2022-08-20T02:07:17.683Z,3.78
2022-08-20T02:09:48.995Z,4.18
2022-08-20T02:12:16.794Z,3.15
2022-08-20T02:14:48.781Z,4.00
2022-08-20T02:17:17.271Z,3.40
2022-08-20T02:19:52.886Z,4.18
2022-08-20T02:22:38.690Z,3.83
2022-08-20T02:25:11.572Z,4.85
2022-08-20T02:27:43.694Z,3.85
2022-08-20T02:30:27.787Z,4.40
2022-08-20T02:32:57.114Z,4.35
2022-08-20T02:35:28.298Z,4.53
2022-08-20T02:37:56.842Z,4.22
2022-08-20T02:40:27.370Z,3.17
2022-08-20T02:43:01.190Z,3.67
2022-08-20T02:45:39.951Z,4.82
2022-08-20T02:48:07.190Z,3.80
2022-08-20T02:50:37.196Z,4.05
2022-08-20T02:53:08.340Z,3.92
2022-08-20T02:55:36.695Z,4.47
2022-08-20T02:58:03.940Z,4.10
2022-08-20T03:00:38.346Z,3.95
2022-08-20T03:03:11.027Z,3.70
2022-08-20T03:05:44.661Z,4.30
2022-08-20T03:08:14.755Z,3.38
2022-08-20T03:10:43.775Z,4.30
2022-08-20T03:13:12.916Z,4.55
2022-08-20T03:15:47.513Z,4.22
2022-08-20T03:18:17.345Z,4.00
2022-08-20T03:20:47.363Z,4.15
2022-08-20T03:23:21.834Z,4.38
2022-08-20T03:25:53.299Z,4.68
2022-08-20T03:28:20.594Z,5.35
2022-08-20T03:30:51.647Z,3.85
2022-08-20T03:33:20.808Z,3.92
2022-08-20T03:35:48.512Z,4.28
2022-08-20T03:38:18.208Z,5.53
2022-08-20T03:41:03.384Z,4.32
2022-08-20T03:43:33.480Z,4.00
2022-08-20T03:46:01.058Z,4.03
2022-08-20T03:48:28.984Z,4.07
2022-08-20T03:51:03.661Z,3.95
2022-08-20T03:53:31.963Z,4.00
2022-08-20T03:56:02.473Z,5.10
2022-08-20T03:58:35.019Z,3.90
2022-08-20T04:01:04.653Z,3.53
2022-08-20T04:03:35.832Z,3.55
2022-08-20T04:06:04.676Z,3.85
2022-08-20T04:08:32.471Z,4.05
2022-08-20T04:11:00.652Z,3.95
2022-08-20T04:13:29.770Z,4.15
2022-08-20T04:16:01.782Z,4.22
2022-08-20T04:18:29.941Z,3.90
2022-08-20T04:21:00.475Z,4.00
2022-08-20T04:23:34.183Z,3.30
2022-08-20T04:26:07.987Z,4.63
2022-08-20T04:28:38.593Z,4.20
2022-08-20T04:31:10.649Z,4.18
2022-08-20T04:33:44.074Z,4.68
2022-08-20T04:36:12.446Z,4.53
2022-08-20T04:38:49.817Z,4.03
2022-08-20T04:41:24.676Z,4.53
2022-08-20T04:43:57.314Z,4.93
2022-08-20T04:46:36.947Z,4.30
2022-08-20T04:49:09.776Z,4.28
2022-08-20T04:54:07.379Z,4.63
2022-08-20T04:56:40.797Z,3.88
2022-08-20T04:59:09.050Z,4.20
2022-08-20T05:01:36.515Z,4.13
2022-08-20T05:04:04.362Z,4.90
2022-08-20T05:06:32.965Z,4.25
2022-08-20T05:09:03.152Z,4.10
2022-08-20T05:11:34.673Z,4.43
2022-08-20T05:14:09.646Z,4.25
2022-08-20T05:16:41.861Z,4.45
2022-08-20T05:19:12.259Z,4.05
2022-08-20T05:21:41.104Z,3.53
2022-08-20T05:24:13.675Z,4.05
2022-08-20T05:26:41.252Z,3.72
2022-08-20T05:29:11.607Z,3.95
2022-08-20T05:31:42.496Z,3.88
2022-08-20T05:34:12.347Z,3.78
2022-08-20T05:36:54.237Z,3.90
2022-08-20T05:39:23.908Z,4.18
2022-08-20T05:41:51.888Z,4.72
2022-08-20T05:44:19.917Z,4.35
2022-08-20T05:46:51.264Z,3.78
2022-08-20T05:49:21.456Z,3.47
2022-08-20T05:51:52.203Z,3.63
2022-08-20T05:54:24.719Z,4.10
2022-08-20T05:56:52.878Z,4.15
2022-08-20T05:59:24.277Z,4.20
2022-08-20T06:01:59.458Z,3.95
2022-08-20T06:04:32.584Z,3.25
2022-08-20T06:07:10.385Z,3.85
2022-08-20T06:09:38.437Z,3.85
2022-08-20T06:12:09.336Z,3.85
2022-08-20T06:14:37.484Z,2.92
2022-08-20T06:17:16.000Z,3.15
2022-08-20T06:19:47.848Z,3.40
2022-08-20T06:22:21.652Z,2.90
2022-08-20T06:24:55.271Z,3.38
2022-08-20T06:27:23.844Z,3.53
2022-08-20T06:29:54.014Z,3.67
2022-08-20T06:32:31.952Z,3.72
2022-08-20T06:35:06.204Z,3.92
2022-08-20T06:37:38.053Z,3.63
2022-08-20T06:40:12.792Z,3.15
2022-08-20T06:42:48.524Z,3.58
2022-08-20T06:45:31.227Z,3.45
2022-08-20T06:48:15.349Z,3.60
2022-08-20T06:50:47.646Z,3.70
2022-08-20T06:53:21.347Z,3.30
2022-08-20T06:55:55.687Z,3.38
2022-08-20T06:58:36.755Z,3.25
2022-08-20T07:01:17.083Z,3.55
2022-08-20T07:03:55.112Z,2.70
2022-08-20T07:06:27.644Z,3.33
2022-08-20T07:08:57.795Z,3.33
2022-08-20T07:11:28.900Z,3.55
2022-08-20T07:14:00.877Z,2.75
2022-08-20T07:16:32.164Z,2.50
2022-08-20T07:19:02.659Z,3.63
2022-08-20T07:21:30.630Z,3.35
2022-08-20T07:23:58.411Z,3.40
2022-08-20T07:26:40.005Z,2.95
2022-08-20T07:29:07.441Z,3.22
2022-08-20T07:31:53.593Z,2.80
2022-08-20T07:34:23.175Z,3.17
2022-08-20T07:36:53.268Z,3.42
2022-08-20T07:39:23.197Z,2.88
2022-08-20T07:42:03.684Z,3.20
2022-08-20T07:44:31.925Z,3.47
2022-08-20T07:47:00.069Z,2.80
2022-08-20T07:49:27.964Z,3.15
2022-08-20T07:51:59.851Z,3.55
2022-08-20T07:54:29.120Z,3.38
2022-08-20T07:57:04.178Z,2.95
2022-08-20T07:59:38.678Z,3.10
2022-08-20T08:02:06.730Z,3.42
2022-08-20T08:04:34.736Z,3.50
2022-08-20T08:07:02.701Z,3.78
2022-08-20T08:09:30.083Z,3.28
2022-08-20T08:12:05.481Z,3.20
2022-08-20T08:14:35.239Z,3.40
2022-08-20T08:17:04.845Z,2.88
2022-08-20T08:19:50.656Z,2.83
2022-08-20T08:22:20.340Z,3.22
2022-08-20T08:24:57.211Z,3.13
2022-08-20T08:27:34.463Z,3.28
2022-08-20T08:30:03.464Z,2.95
2022-08-20T08:32:32.395Z,3.35
2022-08-20T08:35:09.255Z,2.72
2022-08-20T08:37:39.919Z,3.00
2022-08-20T08:40:10.309Z,2.50
2022-08-20T08:42:46.277Z,2.85
2022-08-20T08:45:24.227Z,3.08
2022-08-20T08:47:51.834Z,3.20
2022-08-20T08:50:53.804Z,2.92
2022-08-20T08:54:04.618Z,2.72
2022-08-20T08:56:41.075Z,3.50
2022-08-20T08:59:09.272Z,2.90
2022-08-20T09:01:56.890Z,3.00
2022-08-20T09:04:37.505Z,3.25
2022-08-20T09:07:13.735Z,3.72
2022-08-20T09:09:45.013Z,2.97
2022-08-20T09:12:20.085Z,2.83
2022-08-20T09:14:51.998Z,2.55
2022-08-20T09:17:27.253Z,2.83
2022-08-20T09:19:54.919Z,2.60
2022-08-20T09:22:28.148Z,3.03
2022-08-20T09:25:03.491Z,2.78
2022-08-20T09:27:31.655Z,2.35
2022-08-20T09:30:07.424Z,2.78
2022-08-20T09:32:52.779Z,3.22
2022-08-20T09:35:23.395Z,2.95
2022-08-20T09:37:52.537Z,3.10
2022-08-20T09:40:21.347Z,2.80
2022-08-20T09:42:51.551Z,3.33
2022-08-20T09:45:19.611Z,2.92
2022-08-20T09:47:56.520Z,3.13
2022-08-20T09:50:26.452Z,3.38
2022-08-20T09:53:00.136Z,3.17
2022-08-20T09:55:46.647Z,3.00
2022-08-20T09:58:38.241Z,3.22
2022-08-20T10:01:14.392Z,3.60
2022-08-20T10:06:12.123Z,3.10
2022-08-20T10:08:39.194Z,3.35
2022-08-20T10:11:06.870Z,3.50
2022-08-20T10:13:33.958Z,2.88
2022-08-20T10:16:01.531Z,3.60
2022-08-20T10:18:30.017Z,3.63
2022-08-20T10:20:57.909Z,4.20
2022-08-20T10:23:24.999Z,3.33
2022-08-20T10:25:55.822Z,3.75
2022-08-20T10:28:25.837Z,3.70
2022-08-20T10:30:53.881Z,3.70
2022-08-20T10:33:21.858Z,3.22
2022-08-20T10:35:49.072Z,4.35
2022-08-20T10:38:20.990Z,3.10
2022-08-20T10:43:20.267Z,3.58
2022-08-20T10:45:50.048Z,4.07
2022-08-20T10:48:21.338Z,3.40
2022-08-20T10:50:50.807Z,4.15
2022-08-20T10:56:07.501Z,3.92
2022-08-20T10:58:39.249Z,3.45
2022-08-20T11:01:07.985Z,4.15
2022-08-20T11:03:37.398Z,4.38
2022-08-20T12:23:15.191Z,4.70
2022-08-20T12:25:43.553Z,3.80
2022-08-20T12:28:13.657Z,4.07
2022-08-20T12:30:41.573Z,3.53
2022-08-20T12:33:09.149Z,3.75
2022-08-20T12:35:37.087Z,3.60
2022-08-20T12:38:06.595Z,3.90
2022-08-20T12:40:34.570Z,3.28
2022-08-20T12:43:03.756Z,3.67
2022-08-20T12:45:33.015Z,2.97
2022-08-20T12:48:09.025Z,3.30
2022-08-20T12:50:38.179Z,3.60
2022-08-20T12:53:11.288Z,3.00
2022-08-20T12:55:39.154Z,3.58
2022-08-20T12:58:11.162Z,3.42
2022-08-20T13:00:47.332Z,3.03
2022-08-20T13:03:19.152Z,3.40
2022-08-20T13:05:47.107Z,2.60
2022-08-20T13:08:15.347Z,2.78
2022-08-20T13:10:46.902Z,2.70
2022-08-20T13:13:20.534Z,3.30
2022-08-20T13:15:50.987Z,2.90
2022-08-20T13:18:19.740Z,2.97
2022-08-20T13:20:50.817Z,2.70
2022-08-20T13:23:22.697Z,3.78
2022-08-20T13:25:53.485Z,3.35
2022-08-20T13:28:21.812Z,3.70
2022-08-20T13:30:49.641Z,3.22
2022-08-20T13:33:20.829Z,2.65
2022-08-20T13:35:48.624Z,2.83
2022-08-20T13:38:19.365Z,3.10
2022-08-20T13:40:49.040Z,2.85
2022-08-20T13:43:24.573Z,3.35
2022-08-20T13:45:52.145Z,3.00
2022-08-20T13:48:19.395Z,2.50
2022-08-20T13:50:47.260Z,2.38
2022-08-20T13:53:19.253Z,2.50
2022-08-20T13:55:55.556Z,2.65
2022-08-20T13:58:27.248Z,2.00
2022-08-20T14:00:59.386Z,1.98
2022-08-20T14:03:30.149Z,1.90
2022-08-20T14:06:04.175Z,1.98
2022-08-20T14:08:34.198Z,2.20
2022-08-20T14:11:02.360Z,1.92
2022-08-20T14:13:30.127Z,2.40
2022-08-20T14:16:00.215Z,1.80
2022-08-20T14:18:28.242Z,2.75
2022-08-20T14:20:55.934Z,1.77
2022-08-20T14:23:23.809Z,1.60
2022-08-20T14:25:51.775Z,1.98
2022-08-20T14:28:26.031Z,1.75
2022-08-20T14:30:53.969Z,1.52
2022-08-20T14:33:23.017Z,1.90
2022-08-20T14:35:53.344Z,1.80
2022-08-20T14:38:28.906Z,1.98
2022-08-20T14:41:13.572Z,2.28
2022-08-20T14:43:45.494Z,2.03
2022-08-20T14:46:28.661Z,1.83
2022-08-20T14:49:14.948Z,1.60
2022-08-20T14:51:45.506Z,1.77
2022-08-20T14:54:13.810Z,2.00
2022-08-20T14:56:46.862Z,1.98
2022-08-20T14:59:16.822Z,1.92
2022-08-20T15:01:44.729Z,1.88
2022-08-20T15:04:23.133Z,1.83
2022-08-20T15:06:57.013Z,1.80
2022-08-20T15:09:33.376Z,1.90
2022-08-20T15:12:08.088Z,1.80
2022-08-20T15:14:39.137Z,1.95
2022-08-20T15:17:30.475Z,1.70
2022-08-20T15:20:19.976Z,2.00
2022-08-20T15:23:01.402Z,1.70
2022-08-20T15:25:36.743Z,1.92
2022-08-20T15:28:12.306Z,1.92
2022-08-20T15:30:43.213Z,2.13
2022-08-20T15:33:17.171Z,2.50
2022-08-20T15:35:53.145Z,2.45
2022-08-20T15:38:25.396Z,2.22
2022-08-20T15:41:13.803Z,1.88
2022-08-20T15:43:41.155Z,2.20
2022-08-20T15:46:09.401Z,1.83
2022-08-20T15:48:42.177Z,2.55
2022-08-20T15:51:38.455Z,2.28
2022-08-20T15:54:12.527Z,2.70
2022-08-20T15:56:55.791Z,2.90
2022-08-20T15:59:43.995Z,1.88
2022-08-20T16:02:31.657Z,1.73
2022-08-20T16:05:20.403Z,2.30
2022-08-20T16:08:26.286Z,2.45
2022-08-20T16:11:30.129Z,2.00
2022-08-20T16:14:04.723Z,2.95
2022-08-20T16:19:26.219Z,2.88
2022-08-20T16:21:56.936Z,2.63
2022-08-20T16:24:27.041Z,2.53
2022-08-20T16:27:12.547Z,2.45
2022-08-20T16:30:04.860Z,2.65
2022-08-20T16:32:47.179Z,2.92
2022-08-20T16:36:07.195Z,2.72
2022-08-20T16:38:55.238Z,2.75
2022-08-20T16:41:24.997Z,2.15
2022-08-20T16:44:05.306Z,2.50
2022-08-20T16:46:38.341Z,2.85
2022-08-20T16:49:13.975Z,2.58
2022-08-20T16:51:53.078Z,2.50
2022-08-20T16:54:30.793Z,2.80
2022-08-20T16:57:02.172Z,3.10
2022-08-20T16:59:30.338Z,3.10
2022-08-20T17:02:11.967Z,4.07
2022-08-20T17:04:50.437Z,3.72
2022-08-20T17:07:52.885Z,3.28
2022-08-20T17:10:32.221Z,3.50
2022-08-20T17:13:23.783Z,4.43
2022-08-20T17:16:02.103Z,4.35
2022-08-20T17:18:37.289Z,3.67
2022-08-20T17:21:27.278Z,3.72
2022-08-20T17:24:22.194Z,4.47
2022-08-20T17:27:16.229Z,4.30
2022-08-20T17:29:58.268Z,3.97
2022-08-20T17:32:29.084Z,3.50
2022-08-20T17:35:01.082Z,3.28
2022-08-20T17:37:40.806Z,4.43
2022-08-20T17:40:17.442Z,4.43
2022-08-20T17:42:54.093Z,4.45
2022-08-20T17:45:43.101Z,4.18
2022-08-20T17:48:24.499Z,5.00
2022-08-20T17:50:55.404Z,4.68
2022-08-20T17:53:29.899Z,4.28
2022-08-20T17:56:19.884Z,3.90
2022-08-20T17:59:23.945Z,5.00
2022-08-20T18:02:04.072Z,4.05
2022-08-20T18:04:32.778Z,4.20
2022-08-20T18:07:27.186Z,4.85
2022-08-20T18:10:09.799Z,4.35
2022-08-20T18:12:59.075Z,4.18
2022-08-20T18:15:32.796Z,4.88
2022-08-20T18:18:09.168Z,4.18
2022-08-20T18:21:22.276Z,4.70
2022-08-20T18:24:20.738Z,4.35
2022-08-20T18:26:58.621Z,5.10
2022-08-20T18:29:38.415Z,5.38
2022-08-20T18:32:21.375Z,5.20
2022-08-20T18:34:48.835Z,4.95
2022-08-20T18:37:22.819Z,4.95
2022-08-20T18:39:51.553Z,4.85
2022-08-20T18:42:31.480Z,4.05
2022-08-20T18:44:59.342Z,5.35
2022-08-20T18:47:33.422Z,6.00
2022-08-20T18:50:15.866Z,4.70
2022-08-20T18:53:07.254Z,5.18
2022-08-20T18:55:40.345Z,5.85
2022-08-20T18:58:12.127Z,5.70
2022-08-20T19:00:49.301Z,4.75
2022-08-20T19:03:32.118Z,5.53
2022-08-20T19:06:43.842Z,5.00
2022-08-20T19:09:40.822Z,4.80
2022-08-20T19:12:24.934Z,5.15
2022-08-20T19:15:13.707Z,5.35
2022-08-20T19:17:50.009Z,5.10
2022-08-20T19:20:22.812Z,6.07
2022-08-20T19:22:52.952Z,5.70
2022-08-20T19:25:26.914Z,4.28
2022-08-20T19:27:55.966Z,5.10
2022-08-20T19:30:41.854Z,5.80
2022-08-20T19:33:11.366Z,4.70
2022-08-20T19:35:42.620Z,5.75
2022-08-20T19:38:17.664Z,6.22
2022-08-20T19:40:46.283Z,5.47
2022-08-20T19:43:19.472Z,6.20
2022-08-20T19:46:01.609Z,5.95
2022-08-20T19:48:43.680Z,6.05
2022-08-20T19:51:48.014Z,6.18
2022-08-20T19:54:25.680Z,5.35
2022-08-20T19:57:07.728Z,7.10
2022-08-20T19:59:36.339Z,5.65
2022-08-20T20:02:20.076Z,4.70
2022-08-20T20:07:27.123Z,6.18
2022-08-20T20:12:27.336Z,6.53
2022-08-20T20:14:58.026Z,5.95
2022-08-20T20:17:31.143Z,7.13
2022-08-20T20:20:01.104Z,7.03
2022-08-20T20:22:47.264Z,7.38
2022-08-20T20:25:21.138Z,6.72
2022-08-20T20:27:57.357Z,7.30
2022-08-20T20:30:35.164Z,6.35
2022-08-20T20:33:33.813Z,5.72
2022-08-20T20:36:10.978Z,5.50
2022-08-20T20:38:58.924Z,4.75
2022-08-20T20:41:29.694Z,6.25
2022-08-20T20:44:17.100Z,6.30
2022-08-20T20:46:47.712Z,5.60
2022-08-20T20:52:22.653Z,5.60
2022-08-20T20:54:50.800Z,5.93
2022-08-20T20:57:36.297Z,5.80
2022-08-20T21:00:13.564Z,5.53
2022-08-20T21:02:41.672Z,6.03
2022-08-20T21:05:10.613Z,6.32
2022-08-20T21:08:00.295Z,5.68
2022-08-20T21:12:57.849Z,5.20
2022-08-20T21:15:26.594Z,5.18
2022-08-20T21:17:56.488Z,6.65
2022-08-20T21:20:24.687Z,6.28
2022-08-20T21:22:53.384Z,5.68
2022-08-20T21:25:23.641Z,5.13
2022-08-20T21:27:53.073Z,5.95
2022-08-20T21:30:24.406Z,6.00
2022-08-20T21:32:52.081Z,6.80
2022-08-20T21:35:20.258Z,4.65
2022-08-20T21:37:48.212Z,6.03
2022-08-20T21:40:18.116Z,4.65
2022-08-20T21:42:50.186Z,4.88
2022-08-20T21:45:19.662Z,6.68
2022-08-20T21:47:48.775Z,5.35
2022-08-20T21:50:20.500Z,6.30
2022-08-20T21:52:55.167Z,5.15
2022-08-20T21:55:35.030Z,5.40
2022-08-20T21:58:04.982Z,6.43
2022-08-20T22:00:50.309Z,6.65
2022-08-20T22:03:20.050Z,4.47
2022-08-20T22:05:48.845Z,6.13
2022-08-20T22:08:19.902Z,5.70
2022-08-20T22:10:50.779Z,6.68
2022-08-20T22:13:18.500Z,7.07
2022-08-20T22:15:46.513Z,5.30
2022-08-20T22:18:14.389Z,6.28
2022-08-20T22:20:42.484Z,6.15
2022-08-20T22:23:10.653Z,5.85
2022-08-20T22:25:38.091Z,5.57
2022-08-20T22:28:05.637Z,5.63
2022-08-20T22:30:34.310Z,5.85
2022-08-20T22:33:11.993Z,4.78
2022-08-20T22:35:49.462Z,6.07
2022-08-20T22:38:20.541Z,6.13
2022-08-20T22:40:48.619Z,5.95
2022-08-20T22:43:18.680Z,6.75
2022-08-20T22:45:49.571Z,5.80
2022-08-20T22:50:52.250Z,5.93
2022-08-20T22:53:22.266Z,5.10
2022-08-20T22:55:52.162Z,5.97
2022-08-20T22:58:20.263Z,5.88
2022-08-20T23:01:03.680Z,5.53
2022-08-20T23:03:39.830Z,5.50
2022-08-20T23:06:11.813Z,5.88
2022-08-20T23:08:39.975Z,5.93
2022-08-20T23:11:07.882Z,6.63
2022-08-20T23:13:35.017Z,5.88
2022-08-20T23:16:02.735Z,4.72
2022-08-20T23:18:30.060Z,5.78
2022-08-20T23:21:10.909Z,5.55
2022-08-20T23:23:38.639Z,6.68
2022-08-20T23:26:08.357Z,6.35
2022-08-20T23:28:37.953Z,5.57
2022-08-20T23:31:05.525Z,6.35
2022-08-20T23:33:35.949Z,6.03
2022-08-20T23:36:05.683Z,6.35
2022-08-20T23:38:36.808Z,5.93
2022-08-20T23:41:07.769Z,5.63
2022-08-20T23:43:38.567Z,5.00
2022-08-20T23:46:14.795Z,5.50
2022-08-20T23:48:46.186Z,6.07
2022-08-20T23:51:13.601Z,5.80
2022-08-20T23:53:46.453Z,5.28
2022-08-20T23:56:13.567Z,4.32
2022-08-20T23:58:40.564Z,5.57
